LIR weather

Daniel Oduber Quiros International Airport
Liberia, Guanacaste, Costa Rica

Public forecast

Using degrees Celsius for public forecast. Weather courtesy of forecast.io.

METAR (pilot weather report)

Retrieved 2019/05/20 02:00 UTC (46 minutes ago):

MRLB 200200Z 04005KT 9000 -RA FEW020 OVC100 29/24 A2984 NOSIG

TAF (pilot weather forecast)

Forecast is more than 12 hours old.

Retrieved 2019/05/19 00:06 UTC (1 day ago):

TAF TAF COR MRLB 192300Z 2000/2024 17009KT 9999 SCT020 TX33/2019Z TN23/2011Z TEMPO 2000/2004 5000 RA SCT020CB BECMG 2003/2006 09006KT BECMG 2014/2017 27010KT TEMPO 2020/2024 5000 TSRA SCT015CB